Don Beauty — 3FVK5 — position and weather

sailwx.info

Track history (hours):
 
Tides and Currents Weather Stations Pressure Air Temp Water Temp Dewpoint Dewpoint Depression Visibility Wind Speed Wind Dir Waves Ship Positions

Don Beauty

Last reported at 2017-Sep-25 04:46 UTC. Time now 2017-Nov-23 09:26 UTC.
Position N 37°39' W 124°38'.
Warning: this ship's position is 59 days out of date.

Length 169 m; draft 9 m.

Type: Cargo ship. MMSI: 351600646.

Date/timePositionNaut miles runAvg speedWind from/ knotsBaromVisibWave heightAir tempDewpointWater temp
2017-Sep-25 04:46N 37°39' W 124°38'311.7
2017-Sep-25 04:30N 37°39' W 124°34'611.8
2017-Sep-25 04:00N 37°39' W 124°27'611.6
2017-Sep-25 03:30N 37°38' W 124°20'611.3
2017-Sep-25 03:00N 37°38' W 124°12'611.6
2017-Sep-25 02:30N 37°37' W 124°05'611.5
2017-Sep-25 02:00N 37°37' W 123°58'611.4
2017-Sep-25 01:30N 37°36' W 123°51'611.4
2017-Sep-25 01:00N 37°36' W 123°44'611.2
2017-Sep-25 00:30N 37°35' W 123°37'611.2
2017-Sep-25 00:00N 37°35' W 123°30'611.1
2017-Sep-24 23:30N 37°34' W 123°23'510.9
2017-Sep-24 23:00N 37°34' W 123°16'611.0
2017-Sep-24 22:30N 37°34' W 123°09'510.9
2017-Sep-24 22:00N 37°35' W 123°02'611.6
2017-Sep-24 21:30N 37°38' W 122°56'611.8
2017-Sep-24 21:00N 37°42' W 122°50'611.3
2017-Sep-24 20:30N 37°44' W 122°43'4 8.5
2017-Sep-24 20:00N 37°46' W 122°39'510.7
2017-Sep-24 19:30N 37°48' W 122°32'510.0
2017-Sep-24 19:00N 37°50' W 122°27'5 9.7
2017-Sep-24 18:30N 37°47' W 122°22'4 7.0
2017-Sep-24 18:00N 37°44' W 122°20'0 0.3
2017-Sep-24 17:28N 37°44' W 122°20'0 0.2
2017-Sep-24 16:58N 37°44' W 122°20'0 0.0
2017-Sep-24 16:28N 37°44' W 122°20'0 0.0
2017-Sep-24 15:58N 37°44' W 122°20'0 0.0
2017-Sep-24 15:28N 37°44' W 122°20'0 0.0
2017-Sep-24 14:58N 37°44' W 122°20'0 0.0
2017-Sep-24 14:28N 37°44' W 122°20'0 0.0
2017-Sep-24 13:58N 37°44' W 122°20'0 0.0
2017-Sep-24 13:28N 37°44' W 122°20'0 0.0
2017-Sep-24 12:58N 37°44' W 122°20'0 0.0
2017-Sep-24 12:28N 37°44' W 122°20'0 0.3
2017-Sep-24 11:58N 37°44' W 122°20'0 0.3
2017-Sep-24 11:28N 37°44' W 122°20'0 0.0
2017-Sep-24 10:58N 37°44' W 122°20'0 0.1
2017-Sep-24 10:28N 37°44' W 122°20'0 0.0
2017-Sep-24 09:58N 37°44' W 122°20'0 0.0
2017-Sep-24 09:28N 37°44' W 122°20'0 0.0
2017-Sep-24 08:58N 37°44' W 122°20'0 0.1
2017-Sep-24 08:28N 37°44' W 122°20'0 0.0
2017-Sep-24 07:58N 37°44' W 122°20'0 0.0
2017-Sep-24 07:28N 37°44' W 122°20'0 0.0
2017-Sep-24 06:58N 37°44' W 122°20'0 0.0
2017-Sep-24 06:25N 37°44' W 122°20'0 0.0
2017-Sep-24 05:58N 37°44' W 122°20'0 0.1
2017-Sep-24 05:28N 37°44' W 122°20'0 0.2
2017-Sep-24 04:58N 37°44' W 122°20'0 0.2
2017-Sep-24 04:28N 37°44' W 122°20'0 0.1
2017-Sep-24 03:58N 37°44' W 122°20'0 0.0
2017-Sep-24 03:28N 37°44' W 122°20'0 0.0
2017-Sep-24 02:58N 37°44' W 122°20'0 0.0
2017-Sep-24 02:28N 37°44' W 122°20'0 0.0
2017-Sep-24 01:58N 37°44' W 122°20'0 0.0
2017-Sep-24 01:28N 37°44' W 122°20'0 0.0
2017-Sep-24 00:58N 37°44' W 122°20'0 0.9
2017-Sep-24 00:30N 37°45' W 122°20'4 7.8
2017-Sep-24 00:00N 37°48' W 122°23'611.4
2017-Sep-23 23:30N 37°53' W 122°26'511.0
2017-Sep-23 23:00N 37°59' W 122°26'510.6
2017-Sep-23 22:30N 38°03' W 122°21'5 9.9
2017-Sep-23 22:00N 38°04' W 122°15'5 8.7
2017-Sep-23 21:27N 38°02' W 122°09'  
2017-Sep-21 09:32N 38°03' W 122°08'0 0.0
2017-Sep-21 08:14N 38°03' W 122°08'0 0.0
2017-Sep-21 06:38N 38°03' W 122°08'0 0.0
2017-Sep-21 05:08N 38°03' W 122°08'0 0.0
2017-Sep-21 04:56N 38°03' W 122°08'  
2017-Sep-18 02:02N 38°03' W 122°08'0 0.0
2017-Sep-18 01:56N 38°03' W 122°08'0 0.0
2017-Sep-18 01:14N 38°03' W 122°08'0 0.0
2017-Sep-17 23:02N 38°03' W 122°08'0 0.0
2017-Sep-17 18:08N 38°03' W 122°08'0 0.0
2017-Sep-17 17:50N 38°03' W 122°08'0 0.0
2017-Sep-17 17:14N 38°03' W 122°08'0 0.0
2017-Sep-17 16:44N 38°03' W 122°08'0 0.0
2017-Sep-17 16:26N 38°03' W 122°08'0 0.0
2017-Sep-17 14:50N 38°03' W 122°08'0 0.0
2017-Sep-17 14:26N 38°03' W 122°08'0 0.0
2017-Sep-17 13:14N 38°03' W 122°08'0 0.0
2017-Sep-17 12:44N 38°03' W 122°08'0 0.0
2017-Sep-17 12:14N 38°03' W 122°08'0 0.0
2017-Sep-17 11:56N 38°03' W 122°08'0 0.0
2017-Sep-17 11:26N 38°03' W 122°08'0 0.0
2017-Sep-17 10:56N 38°03' W 122°08'0 0.0
2017-Sep-17 10:26N 38°03' W 122°08'0 0.0
2017-Sep-17 09:56N 38°03' W 122°08'0 0.0
2017-Sep-17 04:38N 38°03' W 122°08'0 0.0
2017-Sep-17 04:14N 38°03' W 122°08'0 0.0
2017-Sep-17 03:56N 38°03' W 122°08'0 0.0
2017-Sep-17 03:26N 38°03' W 122°08'0 0.0
2017-Sep-17 02:56N 38°03' W 122°08'0 0.0
2017-Sep-17 02:26N 38°03' W 122°08'0 0.0
2017-Sep-17 01:44N 38°03' W 122°08'0 0.0
2017-Sep-17 01:26N 38°03' W 122°08'0 0.0
2017-Sep-17 00:56N 38°03' W 122°08'0 0.0
2017-Sep-15 14:20N 38°03' W 122°08'0 0.0
2017-Sep-15 10:38N 38°03' W 122°08'0 0.0
2017-Sep-15 10:26N 38°03' W 122°08'0 0.0
2017-Sep-15 09:56N 38°03' W 122°08'0 0.0
2017-Sep-15 08:02N 38°03' W 122°08'0 0.0
2017-Sep-15 07:50N 38°03' W 122°08'0 0.0
2017-Sep-15 06:56N 38°03' W 122°08'0 0.0
2017-Sep-15 05:26N 38°03' W 122°08'  
Track history (hours):
 
Tides and Currents Weather Stations Pressure Air Temp Water Temp Dewpoint Dewpoint Depression Visibility Wind Speed Wind Dir Waves Ship Positions

Don Beauty

Last reported at 2017-Sep-25 04:46 UTC. Time now 2017-Nov-23 09:26 UTC.
Position N 37°39' W 124°38'.
Warning: this ship's position is 59 days out of date.

Length 169 m; draft 9 m.

Type: Cargo ship. MMSI: 351600646.

Date/timePositionNaut miles runAvg speedWind from/ knotsBaromVisibWave heightAir tempDewpointWater temp
2017-Sep-25 04:46N 37°39' W 124°38'311.7
2017-Sep-25 04:30N 37°39' W 124°34'611.8
2017-Sep-25 04:00N 37°39' W 124°27'611.6
2017-Sep-25 03:30N 37°38' W 124°20'611.3
2017-Sep-25 03:00N 37°38' W 124°12'611.6
2017-Sep-25 02:30N 37°37' W 124°05'611.5
2017-Sep-25 02:00N 37°37' W 123°58'611.4
2017-Sep-25 01:30N 37°36' W 123°51'611.4
2017-Sep-25 01:00N 37°36' W 123°44'611.2
2017-Sep-25 00:30N 37°35' W 123°37'611.2
2017-Sep-25 00:00N 37°35' W 123°30'611.1
2017-Sep-24 23:30N 37°34' W 123°23'510.9
2017-Sep-24 23:00N 37°34' W 123°16'611.0
2017-Sep-24 22:30N 37°34' W 123°09'510.9
2017-Sep-24 22:00N 37°35' W 123°02'611.6
2017-Sep-24 21:30N 37°38' W 122°56'611.8
2017-Sep-24 21:00N 37°42' W 122°50'611.3
2017-Sep-24 20:30N 37°44' W 122°43'4 8.5
2017-Sep-24 20:00N 37°46' W 122°39'510.7
2017-Sep-24 19:30N 37°48' W 122°32'510.0
2017-Sep-24 19:00N 37°50' W 122°27'5 9.7
2017-Sep-24 18:30N 37°47' W 122°22'4 7.0
2017-Sep-24 18:00N 37°44' W 122°20'0 0.3
2017-Sep-24 17:28N 37°44' W 122°20'0 0.2
2017-Sep-24 16:58N 37°44' W 122°20'0 0.0
2017-Sep-24 16:28N 37°44' W 122°20'0 0.0
2017-Sep-24 15:58N 37°44' W 122°20'0 0.0
2017-Sep-24 15:28N 37°44' W 122°20'0 0.0
2017-Sep-24 14:58N 37°44' W 122°20'0 0.0
2017-Sep-24 14:28N 37°44' W 122°20'0 0.0
2017-Sep-24 13:58N 37°44' W 122°20'0 0.0
2017-Sep-24 13:28N 37°44' W 122°20'0 0.0
2017-Sep-24 12:58N 37°44' W 122°20'0 0.0
2017-Sep-24 12:28N 37°44' W 122°20'0 0.3
2017-Sep-24 11:58N 37°44' W 122°20'0 0.3
2017-Sep-24 11:28N 37°44' W 122°20'0 0.0
2017-Sep-24 10:58N 37°44' W 122°20'0 0.1
2017-Sep-24 10:28N 37°44' W 122°20'0 0.0
2017-Sep-24 09:58N 37°44' W 122°20'0 0.0
2017-Sep-24 09:28N 37°44' W 122°20'0 0.0
2017-Sep-24 08:58N 37°44' W 122°20'0 0.1
2017-Sep-24 08:28N 37°44' W 122°20'0 0.0
2017-Sep-24 07:58N 37°44' W 122°20'0 0.0
2017-Sep-24 07:28N 37°44' W 122°20'0 0.0
2017-Sep-24 06:58N 37°44' W 122°20'0 0.0
2017-Sep-24 06:25N 37°44' W 122°20'0 0.0
2017-Sep-24 05:58N 37°44' W 122°20'0 0.1
2017-Sep-24 05:28N 37°44' W 122°20'0 0.2
2017-Sep-24 04:58N 37°44' W 122°20'0 0.2
2017-Sep-24 04:28N 37°44' W 122°20'0 0.1
2017-Sep-24 03:58N 37°44' W 122°20'0 0.0
2017-Sep-24 03:28N 37°44' W 122°20'0 0.0
2017-Sep-24 02:58N 37°44' W 122°20'0 0.0
2017-Sep-24 02:28N 37°44' W 122°20'0 0.0
2017-Sep-24 01:58N 37°44' W 122°20'0 0.0
2017-Sep-24 01:28N 37°44' W 122°20'0 0.0
2017-Sep-24 00:58N 37°44' W 122°20'0 0.9
2017-Sep-24 00:30N 37°45' W 122°20'4 7.8
2017-Sep-24 00:00N 37°48' W 122°23'611.4
2017-Sep-23 23:30N 37°53' W 122°26'511.0
2017-Sep-23 23:00N 37°59' W 122°26'510.6
2017-Sep-23 22:30N 38°03' W 122°21'5 9.9
2017-Sep-23 22:00N 38°04' W 122°15'5 8.7
2017-Sep-23 21:27N 38°02' W 122°09'  
2017-Sep-21 09:32N 38°03' W 122°08'0 0.0
2017-Sep-21 08:14N 38°03' W 122°08'0 0.0
2017-Sep-21 06:38N 38°03' W 122°08'0 0.0
2017-Sep-21 05:08N 38°03' W 122°08'0 0.0
2017-Sep-21 04:56N 38°03' W 122°08'  
2017-Sep-18 02:02N 38°03' W 122°08'0 0.0
2017-Sep-18 01:56N 38°03' W 122°08'0 0.0
2017-Sep-18 01:14N 38°03' W 122°08'0 0.0
2017-Sep-17 23:02N 38°03' W 122°08'0 0.0
2017-Sep-17 18:08N 38°03' W 122°08'0 0.0
2017-Sep-17 17:50N 38°03' W 122°08'0 0.0
2017-Sep-17 17:14N 38°03' W 122°08'0 0.0
2017-Sep-17 16:44N 38°03' W 122°08'0 0.0
2017-Sep-17 16:26N 38°03' W 122°08'0 0.0
2017-Sep-17 14:50N 38°03' W 122°08'0 0.0
2017-Sep-17 14:26N 38°03' W 122°08'0 0.0
2017-Sep-17 13:14N 38°03' W 122°08'0 0.0
2017-Sep-17 12:44N 38°03' W 122°08'0 0.0
2017-Sep-17 12:14N 38°03' W 122°08'0 0.0
2017-Sep-17 11:56N 38°03' W 122°08'0 0.0
2017-Sep-17 11:26N 38°03' W 122°08'0 0.0
2017-Sep-17 10:56N 38°03' W 122°08'0 0.0
2017-Sep-17 10:26N 38°03' W 122°08'0 0.0
2017-Sep-17 09:56N 38°03' W 122°08'0 0.0
2017-Sep-17 04:38N 38°03' W 122°08'0 0.0
2017-Sep-17 04:14N 38°03' W 122°08'0 0.0
2017-Sep-17 03:56N 38°03' W 122°08'0 0.0
2017-Sep-17 03:26N 38°03' W 122°08'0 0.0
2017-Sep-17 02:56N 38°03' W 122°08'0 0.0
2017-Sep-17 02:26N 38°03' W 122°08'0 0.0
2017-Sep-17 01:44N 38°03' W 122°08'0 0.0
2017-Sep-17 01:26N 38°03' W 122°08'0 0.0
2017-Sep-17 00:56N 38°03' W 122°08'0 0.0
2017-Sep-15 14:20N 38°03' W 122°08'0 0.0
2017-Sep-15 10:38N 38°03' W 122°08'0 0.0
2017-Sep-15 10:26N 38°03' W 122°08'0 0.0
2017-Sep-15 09:56N 38°03' W 122°08'0 0.0
2017-Sep-15 08:02N 38°03' W 122°08'0 0.0
2017-Sep-15 07:50N 38°03' W 122°08'0 0.0
2017-Sep-15 06:56N 38°03' W 122°08'0 0.0
2017-Sep-15 05:26N 38°03' W 122°08'  

Dump ship's entire track history